sensor_id;sensor_type;location;lat;lon;timestamp;pressure;altitude;pressure_sealevel;temperature
20730;BMP280;10526;50.850;12.928;2022-07-29T00:01:57;98111.38;;;15.36
20730;BMP280;10526;50.850;12.928;2022-07-29T00:06:19;98108.03;;;15.32
20730;BMP280;10526;50.850;12.928;2022-07-29T00:10:42;98106.50;;;15.31
20730;BMP280;10526;50.850;12.928;2022-07-29T00:15:05;98100.81;;;15.29
20730;BMP280;10526;50.850;12.928;2022-07-29T00:19:27;98097.50;;;15.25
20730;BMP280;10526;50.850;12.928;2022-07-29T00:23:49;98077.31;;;15.20
20730;BMP280;10526;50.850;12.928;2022-07-29T00:28:11;98072.75;;;15.17
20730;BMP280;10526;50.850;12.928;2022-07-29T00:32:34;98064.81;;;15.13
20730;BMP280;10526;50.850;12.928;2022-07-29T00:36:56;98060.38;;;15.07
20730;BMP280;10526;50.850;12.928;2022-07-29T00:41:19;98058.66;;;15.00
20730;BMP280;10526;50.850;12.928;2022-07-29T00:45:41;98045.00;;;14.94
20730;BMP280;10526;50.850;12.928;2022-07-29T00:50:05;98057.00;;;14.90
20730;BMP280;10526;50.850;12.928;2022-07-29T00:54:28;98051.28;;;14.88
20730;BMP280;10526;50.850;12.928;2022-07-29T00:58:51;98039.59;;;14.82
20730;BMP280;10526;50.850;12.928;2022-07-29T01:03:13;98038.16;;;14.77
20730;BMP280;10526;50.850;12.928;2022-07-29T01:07:36;98034.00;;;14.76
20730;BMP280;10526;50.850;12.928;2022-07-29T01:11:59;98045.44;;;14.77
20730;BMP280;10526;50.850;12.928;2022-07-29T01:16:31;98036.34;;;14.74
20730;BMP280;10526;50.850;12.928;2022-07-29T01:30:55;98035.72;;;14.83
20730;BMP280;10526;50.850;12.928;2022-07-29T01:35:28;98037.59;;;14.86
20730;BMP280;10526;50.850;12.928;2022-07-29T01:39:57;98030.59;;;14.88
20730;BMP280;10526;50.850;12.928;2022-07-29T01:49:30;98022.50;;;14.76
20730;BMP280;10526;50.850;12.928;2022-07-29T01:59:13;98015.66;;;14.75
20730;BMP280;10526;50.850;12.928;2022-07-29T02:03:38;98017.81;;;14.80
20730;BMP280;10526;50.850;12.928;2022-07-29T02:08:01;98008.09;;;14.86
20730;BMP280;10526;50.850;12.928;2022-07-29T02:12:24;98006.06;;;14.90
20730;BMP280;10526;50.850;12.928;2022-07-29T02:16:52;97999.50;;;14.91
20730;BMP280;10526;50.850;12.928;2022-07-29T02:21:23;98004.88;;;14.91
20730;BMP280;10526;50.850;12.928;2022-07-29T02:25:49;97999.94;;;14.89
20730;BMP280;10526;50.850;12.928;2022-07-29T02:30:13;98003.00;;;14.88
20730;BMP280;10526;50.850;12.928;2022-07-29T02:34:37;98001.97;;;14.85
20730;BMP280;10526;50.850;12.928;2022-07-29T02:39:02;97990.59;;;14.81
20730;BMP280;10526;50.850;12.928;2022-07-29T02:43:25;97991.41;;;14.78
20730;BMP280;10526;50.850;12.928;2022-07-29T02:47:49;97988.84;;;14.75
20730;BMP280;10526;50.850;12.928;2022-07-29T02:56:49;97984.00;;;14.70
20730;BMP280;10526;50.850;12.928;2022-07-29T03:01:23;97985.81;;;14.73
20730;BMP280;10526;50.850;12.928;2022-07-29T03:05:45;97984.00;;;14.70
20730;BMP280;10526;50.850;12.928;2022-07-29T03:10:08;97985.81;;;14.73
20730;BMP280;10526;50.850;12.928;2022-07-29T03:14:35;97977.38;;;14.74
20730;BMP280;10526;50.850;12.928;2022-07-29T03:18:58;97976.41;;;14.81
20730;BMP280;10526;50.850;12.928;2022-07-29T03:23:24;97991.66;;;14.84
20730;BMP280;10526;50.850;12.928;2022-07-29T03:27:54;97988.56;;;14.85
20730;BMP280;10526;50.850;12.928;2022-07-29T03:32:16;97983.94;;;14.86
20730;BMP280;10526;50.850;12.928;2022-07-29T03:36:46;97976.88;;;14.92
20730;BMP280;10526;50.850;12.928;2022-07-29T03:41:10;97979.38;;;14.99
20730;BMP280;10526;50.850;12.928;2022-07-29T03:45:34;97980.03;;;15.03
20730;BMP280;10526;50.850;12.928;2022-07-29T03:50:02;97981.22;;;15.15
20730;BMP280;10526;50.850;12.928;2022-07-29T03:54:31;97994.13;;;15.20
20730;BMP280;10526;50.850;12.928;2022-07-29T03:58:54;97986.09;;;15.20
20730;BMP280;10526;50.850;12.928;2022-07-29T04:03:17;97982.31;;;15.17
20730;BMP280;10526;50.850;12.928;2022-07-29T04:07:40;97991.22;;;15.14
20730;BMP280;10526;50.850;12.928;2022-07-29T04:12:02;97987.34;;;15.15
20730;BMP280;10526;50.850;12.928;2022-07-29T04:16:25;97991.66;;;15.26
20730;BMP280;10526;50.850;12.928;2022-07-29T04:20:47;98009.22;;;15.43
20730;BMP280;10526;50.850;12.928;2022-07-29T04:25:09;98003.50;;;15.53
20730;BMP280;10526;50.850;12.928;2022-07-29T04:29:31;98006.31;;;15.63
20730;BMP280;10526;50.850;12.928;2022-07-29T04:33:53;97996.56;;;15.81
20730;BMP280;10526;50.850;12.928;2022-07-29T04:38:16;98002.44;;;16.15
20730;BMP280;10526;50.850;12.928;2022-07-29T04:42:38;97995.47;;;16.52
20730;BMP280;10526;50.850;12.928;2022-07-29T04:47:08;98004.06;;;17.03
20730;BMP280;10526;50.850;12.928;2022-07-29T04:51:30;97997.66;;;17.72
20730;BMP280;10526;50.850;12.928;2022-07-29T04:55:53;97997.06;;;19.23
20730;BMP280;10526;50.850;12.928;2022-07-29T05:00:15;97997.47;;;21.39
20730;BMP280;10526;50.850;12.928;2022-07-29T05:04:37;98003.03;;;23.68
20730;BMP280;10526;50.850;12.928;2022-07-29T05:08:59;98003.50;;;25.15
20730;BMP280;10526;50.850;12.928;2022-07-29T05:13:20;98009.69;;;24.88
20730;BMP280;10526;50.850;12.928;2022-07-29T05:17:43;98014.63;;;24.22
20730;BMP280;10526;50.850;12.928;2022-07-29T05:22:05;98007.44;;;23.60
20730;BMP280;10526;50.850;12.928;2022-07-29T05:26:27;98006.38;;;23.04
20730;BMP280;10526;50.850;12.928;2022-07-29T05:30:49;98003.09;;;22.37
20730;BMP280;10526;50.850;12.928;2022-07-29T05:35:13;98015.81;;;22.05
20730;BMP280;10526;50.850;12.928;2022-07-29T05:39:35;98022.84;;;21.76
20730;BMP280;10526;50.850;12.928;2022-07-29T05:44:10;98012.16;;;21.67
20730;BMP280;10526;50.850;12.928;2022-07-29T05:48:33;98011.09;;;21.79
20730;BMP280;10526;50.850;12.928;2022-07-29T05:52:55;98013.63;;;21.68
20730;BMP280;10526;50.850;12.928;2022-07-29T05:57:23;98012.16;;;21.67
20730;BMP280;10526;50.850;12.928;2022-07-29T06:01:45;98017.53;;;21.82
20730;BMP280;10526;50.850;12.928;2022-07-29T06:06:07;98017.44;;;21.96
20730;BMP280;10526;50.850;12.928;2022-07-29T06:10:30;98018.66;;;22.16
20730;BMP280;10526;50.850;12.928;2022-07-29T06:14:52;98007.81;;;22.16
20730;BMP280;10526;50.850;12.928;2022-07-29T06:19:17;98010.09;;;22.23
20730;BMP280;10526;50.850;12.928;2022-07-29T06:23:40;98008.03;;;22.38
20730;BMP280;10526;50.850;12.928;2022-07-29T06:28:03;98017.72;;;22.45
20730;BMP280;10526;50.850;12.928;2022-07-29T06:32:25;98024.72;;;22.31
20730;BMP280;10526;50.850;12.928;2022-07-29T06:36:48;98023.94;;;22.25
20730;BMP280;10526;50.850;12.928;2022-07-29T06:41:13;98024.91;;;22.48
20730;BMP280;10526;50.850;12.928;2022-07-29T06:45:37;98015.28;;;22.47
20730;BMP280;10526;50.850;12.928;2022-07-29T06:50:04;98017.13;;;22.35
20730;BMP280;10526;50.850;12.928;2022-07-29T06:54:28;98015.25;;;22.21
20730;BMP280;10526;50.850;12.928;2022-07-29T06:58:50;98025.16;;;22.24
20730;BMP280;10526;50.850;12.928;2022-07-29T07:03:12;98025.56;;;21.96
20730;BMP280;10526;50.850;12.928;2022-07-29T07:07:34;98026.44;;;21.88
20730;BMP280;10526;50.850;12.928;2022-07-29T07:11:56;98019.38;;;21.76
20730;BMP280;10526;50.850;12.928;2022-07-29T07:16:18;98019.03;;;21.68
20730;BMP280;10526;50.850;12.928;2022-07-29T07:20:41;98027.88;;;21.63
20730;BMP280;10526;50.850;12.928;2022-07-29T07:25:03;98024.63;;;21.79
20730;BMP280;10526;50.850;12.928;2022-07-29T07:29:26;98023.53;;;22.12
20730;BMP280;10526;50.850;12.928;2022-07-29T07:33:48;98032.28;;;22.21
20730;BMP280;10526;50.850;12.928;2022-07-29T07:38:10;98018.66;;;21.95
20730;BMP280;10526;50.850;12.928;2022-07-29T07:42:32;98013.34;;;21.66
20730;BMP280;10526;50.850;12.928;2022-07-29T07:46:54;98013.97;;;21.76
20730;BMP280;10526;50.850;12.928;2022-07-29T07:51:16;98019.69;;;22.44
20730;BMP280;10526;50.850;12.928;2022-07-29T07:55:43;98022.38;;;23.81
20730;BMP280;10526;50.850;12.928;2022-07-29T08:00:25;98029.50;;;24.55
20730;BMP280;10526;50.850;12.928;2022-07-29T08:04:47;98029.78;;;24.63
20730;BMP280;10526;50.850;12.928;2022-07-29T08:09:09;98036.69;;;24.97
20730;BMP280;10526;50.850;12.928;2022-07-29T08:13:49;98031.81;;;26.17
20730;BMP280;10526;50.850;12.928;2022-07-29T08:18:13;98037.09;;;27.05
20730;BMP280;10526;50.850;12.928;2022-07-29T08:22:35;98034.66;;;29.70
20730;BMP280;10526;50.850;12.928;2022-07-29T08:26:57;98039.75;;;32.08
20730;BMP280;10526;50.850;12.928;2022-07-29T08:31:19;98031.56;;;32.86
20730;BMP280;10526;50.850;12.928;2022-07-29T08:35:41;98035.84;;;36.22
20730;BMP280;10526;50.850;12.928;2022-07-29T08:40:05;98043.50;;;38.66
20730;BMP280;10526;50.850;12.928;2022-07-29T08:44:28;98043.78;;;40.35
20730;BMP280;10526;50.850;12.928;2022-07-29T08:48:51;98051.97;;;42.81
20730;BMP280;10526;50.850;12.928;2022-07-29T08:53:16;98047.19;;;44.94
20730;BMP280;10526;50.850;12.928;2022-07-29T08:57:41;98059.66;;;45.50
20730;BMP280;10526;50.850;12.928;2022-07-29T09:02:22;98051.06;;;44.85
20730;BMP280;10526;50.850;12.928;2022-07-29T09:06:48;98052.53;;;46.38
20730;BMP280;10526;50.850;12.928;2022-07-29T09:11:13;98052.06;;;46.45
20730;BMP280;10526;50.850;12.928;2022-07-29T09:15:35;98037.19;;;43.61
20730;BMP280;10526;50.850;12.928;2022-07-29T09:20:09;98031.50;;;39.43
20730;BMP280;10526;50.850;12.928;2022-07-29T09:24:45;98033.38;;;38.17
20730;BMP280;10526;50.850;12.928;2022-07-29T09:29:20;98030.44;;;40.98
20730;BMP280;10526;50.850;12.928;2022-07-29T09:33:42;98035.88;;;42.21
20730;BMP280;10526;50.850;12.928;2022-07-29T09:38:14;98031.44;;;41.73
20730;BMP280;10526;50.850;12.928;2022-07-29T09:42:35;98025.34;;;43.13
20730;BMP280;10526;50.850;12.928;2022-07-29T09:47:03;98023.47;;;41.81
20730;BMP280;10526;50.850;12.928;2022-07-29T09:51:31;98026.25;;;40.21
20730;BMP280;10526;50.850;12.928;2022-07-29T09:55:59;98010.03;;;41.64
20730;BMP280;10526;50.850;12.928;2022-07-29T10:00:22;98012.03;;;40.68
20730;BMP280;10526;50.850;12.928;2022-07-29T10:04:44;98003.19;;;41.12
20730;BMP280;10526;50.850;12.928;2022-07-29T10:09:11;97992.41;;;40.79
20730;BMP280;10526;50.850;12.928;2022-07-29T10:13:33;97996.06;;;42.38
20730;BMP280;10526;50.850;12.928;2022-07-29T10:17:56;97994.06;;;41.53
20730;BMP280;10526;50.850;12.928;2022-07-29T10:22:19;97986.63;;;40.36
20730;BMP280;10526;50.850;12.928;2022-07-29T10:27:03;97987.88;;;41.83
20730;BMP280;10526;50.850;12.928;2022-07-29T10:31:41;97982.84;;;40.57
20730;BMP280;10526;50.850;12.928;2022-07-29T10:36:24;97980.22;;;39.60
20730;BMP280;10526;50.850;12.928;2022-07-29T10:46:00;97965.88;;;40.14
20730;BMP280;10526;50.850;12.928;2022-07-29T10:50:22;97978.06;;;41.26
20730;BMP280;10526;50.850;12.928;2022-07-29T10:54:47;97966.34;;;38.13
20730;BMP280;10526;50.850;12.928;2022-07-29T11:03:48;97962.44;;;36.13
20730;BMP280;10526;50.850;12.928;2022-07-29T11:17:05;97950.84;;;35.88
20730;BMP280;10526;50.850;12.928;2022-07-29T11:21:37;97952.09;;;35.48
20730;BMP280;10526;50.850;12.928;2022-07-29T11:26:20;97941.59;;;35.20
20730;BMP280;10526;50.850;12.928;2022-07-29T11:30:52;97940.06;;;35.92
20730;BMP280;10526;50.850;12.928;2022-07-29T11:35:19;97936.44;;;35.43
20730;BMP280;10526;50.850;12.928;2022-07-29T11:45:09;97927.81;;;34.32
20730;BMP280;10526;50.850;12.928;2022-07-29T11:49:52;97920.44;;;34.10
20730;BMP280;10526;50.850;12.928;2022-07-29T11:54:34;97922.88;;;33.71
20730;BMP280;10526;50.850;12.928;2022-07-29T11:59:17;97911.91;;;32.99
20730;BMP280;10526;50.850;12.928;2022-07-29T12:03:40;97927.22;;;32.92
20730;BMP280;10526;50.850;12.928;2022-07-29T12:08:17;97921.59;;;31.97
20730;BMP280;10526;50.850;12.928;2022-07-29T12:12:51;97921.81;;;31.84
20730;BMP280;10526;50.850;12.928;2022-07-29T12:17:31;97908.38;;;32.18
20730;BMP280;10526;50.850;12.928;2022-07-29T12:21:55;97900.22;;;32.91
20730;BMP280;10526;50.850;12.928;2022-07-29T12:26:20;97900.75;;;33.22
20730;BMP280;10526;50.850;12.928;2022-07-29T12:30:48;97899.00;;;33.09
20730;BMP280;10526;50.850;12.928;2022-07-29T12:35:18;97898.50;;;32.63
20730;BMP280;10526;50.850;12.928;2022-07-29T12:39:43;97900.78;;;32.34
20730;BMP280;10526;50.850;12.928;2022-07-29T12:44:05;97893.91;;;31.72
20730;BMP280;10526;50.850;12.928;2022-07-29T12:48:42;97894.00;;;30.62
20730;BMP280;10526;50.850;12.928;2022-07-29T12:53:11;97894.28;;;30.51
20730;BMP280;10526;50.850;12.928;2022-07-29T12:57:48;97886.19;;;30.45
20730;BMP280;10526;50.850;12.928;2022-07-29T13:02:22;97882.09;;;30.31
20730;BMP280;10526;50.850;12.928;2022-07-29T13:06:45;97882.56;;;30.50
20730;BMP280;10526;50.850;12.928;2022-07-29T13:11:41;97887.97;;;30.35
20730;BMP280;10526;50.850;12.928;2022-07-29T13:16:09;97893.16;;;29.90
20730;BMP280;10526;50.850;12.928;2022-07-29T13:20:32;97880.78;;;29.55
20730;BMP280;10526;50.850;12.928;2022-07-29T13:25:00;97890.47;;;29.35
20730;BMP280;10526;50.850;12.928;2022-07-29T13:29:26;97881.16;;;29.04
20730;BMP280;10526;50.850;12.928;2022-07-29T13:33:59;97882.63;;;29.05
20730;BMP280;10526;50.850;12.928;2022-07-29T13:38:24;97873.66;;;29.04
20730;BMP280;10526;50.850;12.928;2022-07-29T13:42:51;97878.66;;;29.27
20730;BMP280;10526;50.850;12.928;2022-07-29T13:47:13;97887.25;;;29.10
20730;BMP280;10526;50.850;12.928;2022-07-29T13:51:35;97872.75;;;28.89
20730;BMP280;10526;50.850;12.928;2022-07-29T13:55:57;97870.25;;;28.38
20730;BMP280;10526;50.850;12.928;2022-07-29T14:00:20;97868.44;;;28.14
20730;BMP280;10526;50.850;12.928;2022-07-29T14:04:42;97866.75;;;28.24
20730;BMP280;10526;50.850;12.928;2022-07-29T14:09:05;97882.22;;;28.09
20730;BMP280;10526;50.850;12.928;2022-07-29T14:13:28;97875.03;;;27.92
20730;BMP280;10526;50.850;12.928;2022-07-29T14:17:50;97878.16;;;27.83
20730;BMP280;10526;50.850;12.928;2022-07-29T14:22:12;97891.47;;;28.06
20730;BMP280;10526;50.850;12.928;2022-07-29T14:26:34;97901.72;;;28.18
20730;BMP280;10526;50.850;12.928;2022-07-29T14:30:56;97895.81;;;28.14
20730;BMP280;10526;50.850;12.928;2022-07-29T14:35:18;97899.31;;;28.15
20730;BMP280;10526;50.850;12.928;2022-07-29T14:39:40;97905.84;;;28.25
20730;BMP280;10526;50.850;12.928;2022-07-29T14:44:07;97907.06;;;28.11
20730;BMP280;10526;50.850;12.928;2022-07-29T14:48:29;97911.44;;;27.87
20730;BMP280;10526;50.850;12.928;2022-07-29T14:52:52;97908.03;;;27.81
20730;BMP280;10526;50.850;12.928;2022-07-29T14:57:14;97916.44;;;27.70
20730;BMP280;10526;50.850;12.928;2022-07-29T15:01:37;97940.16;;;27.43
20730;BMP280;10526;50.850;12.928;2022-07-29T15:05:59;97947.75;;;26.10
20730;BMP280;10526;50.850;12.928;2022-07-29T15:10:21;97940.09;;;24.98
20730;BMP280;10526;50.850;12.928;2022-07-29T15:14:45;97946.31;;;24.15
20730;BMP280;10526;50.850;12.928;2022-07-29T15:19:08;97946.88;;;23.59
20730;BMP280;10526;50.850;12.928;2022-07-29T15:23:30;97937.72;;;23.46
20730;BMP280;10526;50.850;12.928;2022-07-29T15:27:53;97930.72;;;23.28
20730;BMP280;10526;50.850;12.928;2022-07-29T15:32:21;97927.28;;;23.33
20730;BMP280;10526;50.850;12.928;2022-07-29T15:36:43;97918.69;;;23.46
20730;BMP280;10526;50.850;12.928;2022-07-29T15:41:14;97907.97;;;23.25
20730;BMP280;10526;50.850;12.928;2022-07-29T15:45:40;97908.13;;;23.11
20730;BMP280;10526;50.850;12.928;2022-07-29T15:50:04;97907.91;;;23.14
20730;BMP280;10526;50.850;12.928;2022-07-29T15:54:28;97898.72;;;23.06
20730;BMP280;10526;50.850;12.928;2022-07-29T15:58:51;97898.03;;;23.22
20730;BMP280;10526;50.850;12.928;2022-07-29T16:03:13;97893.72;;;23.53
20730;BMP280;10526;50.850;12.928;2022-07-29T16:07:36;97874.06;;;23.80
20730;BMP280;10526;50.850;12.928;2022-07-29T16:11:58;97880.00;;;23.84
20730;BMP280;10526;50.850;12.928;2022-07-29T16:16:20;97874.75;;;23.75
20730;BMP280;10526;50.850;12.928;2022-07-29T16:20:42;97853.25;;;23.66
20730;BMP280;10526;50.850;12.928;2022-07-29T16:25:05;97851.78;;;23.65
20730;BMP280;10526;50.850;12.928;2022-07-29T16:29:27;97845.81;;;23.55
20730;BMP280;10526;50.850;12.928;2022-07-29T16:33:53;97845.28;;;23.46
20730;BMP280;10526;50.850;12.928;2022-07-29T16:38:17;97840.28;;;23.27
20730;BMP280;10526;50.850;12.928;2022-07-29T16:42:39;97848.19;;;23.25
20730;BMP280;10526;50.850;12.928;2022-07-29T16:47:09;97852.13;;;23.30
20730;BMP280;10526;50.850;12.928;2022-07-29T16:51:32;97858.88;;;23.40
20730;BMP280;10526;50.850;12.928;2022-07-29T16:55:54;97865.56;;;23.56
20730;BMP280;10526;50.850;12.928;2022-07-29T17:00:17;97864.06;;;23.49
20730;BMP280;10526;50.850;12.928;2022-07-29T17:04:40;97856.94;;;22.98
20730;BMP280;10526;50.850;12.928;2022-07-29T17:09:08;97857.69;;;22.56
20730;BMP280;10526;50.850;12.928;2022-07-29T17:13:30;97852.00;;;22.54
20730;BMP280;10526;50.850;12.928;2022-07-29T17:17:52;97854.03;;;22.65
20730;BMP280;10526;50.850;12.928;2022-07-29T17:22:17;97854.47;;;22.57
20730;BMP280;10526;50.850;12.928;2022-07-29T17:26:40;97861.06;;;22.45
20730;BMP280;10526;50.850;12.928;2022-07-29T17:31:04;97863.44;;;22.32
20730;BMP280;10526;50.850;12.928;2022-07-29T17:35:26;97870.88;;;22.37
20730;BMP280;10526;50.850;12.928;2022-07-29T17:40:07;97869.91;;;22.40
20730;BMP280;10526;50.850;12.928;2022-07-29T17:44:30;97868.84;;;22.32
20730;BMP280;10526;50.850;12.928;2022-07-29T17:48:57;97874.63;;;22.14
20730;BMP280;10526;50.850;12.928;2022-07-29T17:53:19;97870.31;;;22.02
20730;BMP280;10526;50.850;12.928;2022-07-29T17:57:42;97866.78;;;21.95
20730;BMP280;10526;50.850;12.928;2022-07-29T18:02:04;97871.09;;;21.82
20730;BMP280;10526;50.850;12.928;2022-07-29T18:06:27;97856.69;;;21.70
20730;BMP280;10526;50.850;12.928;2022-07-29T18:10:50;97857.03;;;21.57
20730;BMP280;10526;50.850;12.928;2022-07-29T18:15:12;97853.03;;;21.53
20730;BMP280;10526;50.850;12.928;2022-07-29T18:19:34;97852.03;;;21.50
20730;BMP280;10526;50.850;12.928;2022-07-29T18:24:01;97839.69;;;21.49
20730;BMP280;10526;50.850;12.928;2022-07-29T18:28:23;97840.84;;;21.43
20730;BMP280;10526;50.850;12.928;2022-07-29T18:32:47;97835.56;;;21.33
20730;BMP280;10526;50.850;12.928;2022-07-29T18:37:31;97837.75;;;21.29
20730;BMP280;10526;50.850;12.928;2022-07-29T18:42:14;97831.78;;;21.25
20730;BMP280;10526;50.850;12.928;2022-07-29T18:46:36;97827.31;;;21.22
20730;BMP280;10526;50.850;12.928;2022-07-29T18:51:08;97828.53;;;21.21
20730;BMP280;10526;50.850;12.928;2022-07-29T18:55:30;97829.50;;;21.18
20730;BMP280;10526;50.850;12.928;2022-07-29T18:59:52;97838.09;;;21.17
20730;BMP280;10526;50.850;12.928;2022-07-29T19:04:16;97838.72;;;21.12
20730;BMP280;10526;50.850;12.928;2022-07-29T19:08:41;97832.97;;;21.04
20730;BMP280;10526;50.850;12.928;2022-07-29T19:13:04;97843.25;;;21.00
20730;BMP280;10526;50.850;12.928;2022-07-29T19:17:26;97835.53;;;20.93
20730;BMP280;10526;50.850;12.928;2022-07-29T19:21:48;97836.50;;;20.90
20730;BMP280;10526;50.850;12.928;2022-07-29T19:26:10;97851.78;;;20.93
20730;BMP280;10526;50.850;12.928;2022-07-29T19:30:41;97858.72;;;20.94
20730;BMP280;10526;50.850;12.928;2022-07-29T19:35:04;97869.00;;;20.90
20730;BMP280;10526;50.850;12.928;2022-07-29T19:39:58;97882.53;;;20.90
20730;BMP280;10526;50.850;12.928;2022-07-29T19:44:21;97875.59;;;20.89
20730;BMP280;10526;50.850;12.928;2022-07-29T19:48:43;97875.81;;;20.85
20730;BMP280;10526;50.850;12.928;2022-07-29T19:53:05;97874.69;;;20.77
20730;BMP280;10526;50.850;12.928;2022-07-29T19:57:27;97874.06;;;20.67
20730;BMP280;10526;50.850;12.928;2022-07-29T20:02:01;97875.66;;;20.59
20730;BMP280;10526;50.850;12.928;2022-07-29T20:06:23;97880.53;;;20.55
20730;BMP280;10526;50.850;12.928;2022-07-29T20:10:45;97881.91;;;20.51
20730;BMP280;10526;50.850;12.928;2022-07-29T20:15:11;97879.38;;;20.47
20730;BMP280;10526;50.850;12.928;2022-07-29T20:19:37;97872.97;;;20.45
20730;BMP280;10526;50.850;12.928;2022-07-29T20:23:59;97873.44;;;20.43
20730;BMP280;10526;50.850;12.928;2022-07-29T20:28:23;97870.88;;;20.39
20730;BMP280;10526;50.850;12.928;2022-07-29T20:32:45;97878.44;;;20.35
20730;BMP280;10526;50.850;12.928;2022-07-29T20:37:08;97875.47;;;20.33
20730;BMP280;10526;50.850;12.928;2022-07-29T20:41:38;97883.13;;;20.35
20730;BMP280;10526;50.850;12.928;2022-07-29T20:46:00;97896.66;;;20.35
20730;BMP280;10526;50.850;12.928;2022-07-29T20:50:22;97903.53;;;20.36
20730;BMP280;10526;50.850;12.928;2022-07-29T20:54:45;97912.88;;;20.35
20730;BMP280;10526;50.850;12.928;2022-07-29T20:59:08;97925.38;;;20.32
20730;BMP280;10526;50.850;12.928;2022-07-29T21:03:31;97928.28;;;20.29
20730;BMP280;10526;50.850;12.928;2022-07-29T21:07:56;97937.56;;;20.28
20730;BMP280;10526;50.850;12.928;2022-07-29T21:12:18;97924.88;;;20.19
20730;BMP280;10526;50.850;12.928;2022-07-29T21:16:41;97926.19;;;20.09
20730;BMP280;10526;50.850;12.928;2022-07-29T21:21:03;97930.03;;;19.93
20730;BMP280;10526;50.850;12.928;2022-07-29T21:25:27;97935.00;;;19.71
20730;BMP280;10526;50.850;12.928;2022-07-29T21:29:50;97937.72;;;19.47
20730;BMP280;10526;50.850;12.928;2022-07-29T21:34:12;97942.84;;;19.36
20730;BMP280;10526;50.850;12.928;2022-07-29T21:38:37;97946.63;;;19.38
20730;BMP280;10526;50.850;12.928;2022-07-29T21:42:59;97955.75;;;19.41
20730;BMP280;10526;50.850;12.928;2022-07-29T21:47:21;97956.78;;;19.43
20730;BMP280;10526;50.850;12.928;2022-07-29T21:51:43;97958.00;;;19.42
20730;BMP280;10526;50.850;12.928;2022-07-29T21:56:06;97965.97;;;19.37
20730;BMP280;10526;50.850;12.928;2022-07-29T22:00:36;97980.81;;;19.32
20730;BMP280;10526;50.850;12.928;2022-07-29T22:04:58;97973.81;;;19.26
20730;BMP280;10526;50.850;12.928;2022-07-29T22:09:20;97982.25;;;19.19
20730;BMP280;10526;50.850;12.928;2022-07-29T22:13:43;97979.13;;;19.11
20730;BMP280;10526;50.850;12.928;2022-07-29T22:18:05;97976.13;;;19.00
20730;BMP280;10526;50.850;12.928;2022-07-29T22:22:27;97968.06;;;18.91
20730;BMP280;10526;50.850;12.928;2022-07-29T22:26:49;97965.38;;;18.81
20730;BMP280;10526;50.850;12.928;2022-07-29T22:31:12;97960.91;;;18.78
20730;BMP280;10526;50.850;12.928;2022-07-29T22:35:34;97957.16;;;18.76
20730;BMP280;10526;50.850;12.928;2022-07-29T22:39:56;97950.41;;;18.71
20730;BMP280;10526;50.850;12.928;2022-07-29T22:44:18;97950.59;;;18.68
20730;BMP280;10526;50.850;12.928;2022-07-29T22:48:40;97948.47;;;18.63
20730;BMP280;10526;50.850;12.928;2022-07-29T22:53:02;97946.53;;;18.63
20730;BMP280;10526;50.850;12.928;2022-07-29T22:57:25;97953.44;;;18.55
20730;BMP280;10526;50.850;12.928;2022-07-29T23:01:47;97955.09;;;18.52
20730;BMP280;10526;50.850;12.928;2022-07-29T23:06:09;97964.22;;;18.55
20730;BMP280;10526;50.850;12.928;2022-07-29T23:10:31;97973.66;;;18.60
20730;BMP280;10526;50.850;12.928;2022-07-29T23:14:54;97974.69;;;18.62
20730;BMP280;10526;50.850;12.928;2022-07-29T23:19:16;97979.34;;;18.62
20730;BMP280;10526;50.850;12.928;2022-07-29T23:23:47;97965.72;;;18.56
20730;BMP280;10526;50.850;12.928;2022-07-29T23:28:10;97967.38;;;18.53
20730;BMP280;10526;50.850;12.928;2022-07-29T23:32:34;97971.13;;;18.47
20730;BMP280;10526;50.850;12.928;2022-07-29T23:36:56;97967.09;;;18.42
20730;BMP280;10526;50.850;12.928;2022-07-29T23:41:18;97961.25;;;18.35
20730;BMP280;10526;50.850;12.928;2022-07-29T23:45:42;97960.06;;;18.27
20730;BMP280;10526;50.850;12.928;2022-07-29T23:50:10;97959.47;;;18.23
20730;BMP280;10526;50.850;12.928;2022-07-29T23:54:33;97970.25;;;18.23
20730;BMP280;10526;50.850;12.928;2022-07-29T23:58:56;97969.75;;;18.24
